.
WxDataArchive / Data Records for 2016-01-07
2016-01-06 January 2016 2016-01-08

Data Records for Thursday, 07 January 2016

Time	Temp	Chill	HIndex	Humid	Dewpt	 Wind 	HiWind	WindDir	Rain 	Barom
-----	----	-----	------	-----	-----	------	------	-------	-----	-----
00:00	26.0	26.0	26.0	78	20.1	0	0	---	0.00	30.256 
00:05	25.7	25.7	25.7	79	20.1	0	0	---	0.00	30.256 
00:10	25.4	25.4	25.4	79	19.8	0	0	---	0.00	30.256 
00:15	25.3	25.3	25.3	80	20.0	0	0	---	0.00	30.248 
00:20	25.1	25.1	25.1	80	19.8	0	0	---	0.00	30.248 
00:25	25.0	25.0	25.0	80	19.7	0	0	---	0.00	30.248 
00:30	24.8	24.8	24.8	81	19.8	0	0	---	0.00	30.246 
00:35	24.8	24.8	24.8	81	19.8	0	0	---	0.00	30.246 
00:40	24.8	24.8	24.8	81	19.8	0	0	---	0.00	30.246 
00:45	24.8	24.8	24.8	81	19.8	0	0	---	0.00	30.243 
00:50	24.8	24.8	24.8	81	19.8	0	0	---	0.00	30.243 
00:55	24.8	24.8	24.8	82	20.1	0	0	---	0.00	30.243 
01:00	25.0	25.0	25.0	82	20.3	0	0	---	0.00	30.240 
01:05	25.0	25.0	25.0	82	20.3	0	0	---	0.00	30.240 
01:10	25.1	25.1	25.1	82	20.4	0	0	---	0.00	30.240 
01:15	25.3	25.3	25.3	83	20.9	0	0	---	0.00	30.233 
01:20	25.3	25.3	25.3	83	20.9	0	0	---	0.00	30.233 
01:25	25.4	25.4	25.4	83	21.0	0	0	---	0.00	30.233 
01:30	25.4	25.4	25.4	83	21.0	0	0	---	0.00	30.229 
01:35	25.4	25.4	25.4	83	21.0	0	0	---	0.00	30.229 
01:40	25.4	25.4	25.4	83	21.0	0	0	---	0.00	30.229 
01:45	25.6	25.6	25.6	83	21.2	0	0	---	0.00	30.227 
01:50	25.6	25.6	25.6	84	21.5	0	0	---	0.00	30.227 
01:55	25.7	25.7	25.7	83	21.3	0	0	---	0.00	30.227 
02:00	25.7	25.7	25.7	83	21.3	0	0	---	0.00	30.219 
02:05	25.7	25.7	25.7	83	21.3	0	0	---	0.00	30.219 
02:10	25.8	25.8	25.8	84	21.6	0	0	---	0.00	30.219 
02:15	25.8	25.8	25.8	84	21.6	0	0	---	0.00	30.215 
02:20	25.8	25.8	25.8	84	21.6	0	0	---	0.00	30.215 
02:25	26.0	26.0	26.0	84	21.8	0	0	---	0.00	30.215 
02:30	26.0	26.0	26.0	84	21.8	0	0	---	0.00	30.215 
02:35	25.8	25.8	25.8	84	21.6	0	0	---	0.00	30.215 
02:40	25.8	25.8	25.8	84	21.6	0	0	---	0.00	30.215 
02:45	25.8	25.8	25.8	84	21.6	0	0	---	0.00	30.215 
02:50	25.7	25.7	25.7	84	21.5	0	0	---	0.00	30.215 
02:55	25.6	25.6	25.6	84	21.5	0	0	---	0.00	30.215 
03:00	25.4	25.4	25.4	84	21.3	0	0	---	0.00	30.214 
03:05	25.1	25.1	25.1	83	20.7	0	0	---	0.00	30.214 
03:10	25.0	25.0	25.0	84	20.9	0	0	---	0.00	30.214 
03:15	24.8	24.8	24.8	84	20.7	0	0	---	0.00	30.213 
03:20	24.5	24.5	24.5	84	20.4	0	0	---	0.00	30.213 
03:25	24.4	24.4	24.4	84	20.3	0	0	---	0.00	30.213 
03:30	24.1	24.1	24.1	84	20.0	0	0	---	0.00	30.213 
03:35	24.1	24.1	24.1	84	20.0	0	0	---	0.00	30.213 
03:40	23.9	23.9	23.9	84	19.8	0	0	---	0.00	30.213 
03:45	23.9	23.9	23.9	84	19.8	0	0	---	0.00	30.212 
03:50	23.8	23.8	23.8	84	19.7	0	0	---	0.00	30.212 
03:55	23.8	23.8	23.8	84	19.7	0	0	---	0.00	30.212 
04:00	23.6	23.6	23.6	84	19.5	0	0	---	0.00	30.203 
04:05	23.6	23.6	23.6	85	19.8	0	0	---	0.00	30.203 
04:10	23.6	23.6	23.6	85	19.8	0	0	---	0.00	30.203 
04:15	23.5	23.5	23.5	85	19.7	0	0	---	0.00	30.203 
04:20	23.5	23.5	23.5	85	19.7	0	0	---	0.00	30.203 
04:25	23.5	23.5	23.5	85	19.7	0	0	---	0.00	30.203 
04:30	23.5	23.5	23.5	86	19.9	0	0	---	0.00	30.201 
04:35	23.6	23.6	23.6	86	20.0	0	0	---	0.00	30.201 
04:40	23.9	23.9	23.9	86	20.3	0	0	---	0.00	30.201 
04:45	24.1	24.1	24.1	86	20.5	0	0	---	0.00	30.200 
04:50	24.2	24.2	24.2	87	20.9	0	0	---	0.00	30.200 
04:55	24.5	24.5	24.5	87	21.2	0	0	---	0.00	30.200 
05:00	24.7	24.7	24.7	87	21.4	0	0	---	0.00	30.197 
05:05	24.8	24.8	24.8	87	21.5	0	0	---	0.00	30.197 
05:10	25.0	25.0	25.0	86	21.4	0	0	---	0.00	30.197 
05:15	25.1	25.1	25.1	86	21.5	0	0	---	0.00	30.197 
05:20	25.3	25.3	25.3	86	21.7	0	0	---	0.00	30.197 
05:25	25.3	25.3	25.3	86	21.7	0	0	---	0.00	30.197 
05:30	25.3	25.3	25.3	85	21.4	0	0	---	0.00	30.197 
05:35	25.3	25.3	25.3	85	21.4	0	0	---	0.00	30.197 
05:40	25.3	25.3	25.3	85	21.4	0	0	---	0.00	30.197 
05:45	25.3	25.3	25.3	85	21.4	0	0	---	0.00	30.191 
05:50	25.3	25.3	25.3	85	21.4	0	0	---	0.00	30.191 
05:55	25.3	25.3	25.3	85	21.4	0	0	---	0.00	30.191 
06:00	25.4	25.4	25.4	85	21.5	0	0	---	0.00	30.189 
06:05	25.6	25.6	25.6	85	21.7	0	0	---	0.00	30.189 
06:10	25.6	25.6	25.6	85	21.7	0	0	---	0.00	30.189 
06:15	25.7	25.7	25.7	85	21.8	0	0	---	0.00	30.189 
06:20	25.8	25.8	25.8	84	21.6	0	0	---	0.00	30.189 
06:25	26.0	26.0	26.0	84	21.8	0	0	---	0.00	30.189 
06:30	26.1	26.1	26.1	84	21.9	0	0	---	0.00	30.189 
06:35	26.3	26.3	26.3	83	21.9	0	0	---	0.00	30.189 
06:40	26.4	26.4	26.4	83	22.0	0	1	270	0.00	30.189 
06:45	26.6	26.6	26.6	82	21.9	0	1	270	0.00	30.187 
06:50	26.7	26.7	26.7	81	21.7	0	1	270	0.00	30.187 
06:55	26.9	26.9	26.9	81	21.9	0	0	---	0.00	30.187 
07:00	26.9	26.9	26.9	81	21.9	0	0	---	0.00	30.194 
07:05	27.0	27.0	27.0	80	21.7	0	0	---	0.00	30.194 
07:10	27.0	27.0	27.0	80	21.7	0	0	---	0.00	30.194 
07:15	27.0	27.0	27.0	80	21.7	0	0	---	0.00	30.194 
07:20	27.0	27.0	27.0	80	21.7	0	1	270	0.00	30.194 
07:25	27.0	27.0	27.0	79	21.4	0	0	---	0.00	30.194 
07:30	27.0	27.0	27.0	79	21.4	0	0	---	0.00	30.193 
07:35	27.0	27.0	27.0	79	21.4	0	0	---	0.00	30.193 
07:40	27.0	27.0	27.0	79	21.4	0	0	---	0.00	30.193 
07:45	27.0	27.0	27.0	79	21.4	0	1	270	0.00	30.194 
07:50	27.0	27.0	27.0	79	21.4	0	0	---	0.00	30.194 
07:55	27.0	27.0	27.0	79	21.4	0	0	---	0.00	30.194 
08:00	27.0	27.0	27.0	79	21.4	0	0	---	0.00	30.195 
08:05	26.9	26.9	26.9	79	21.3	0	1	270	0.00	30.195 
08:10	26.9	26.9	26.9	79	21.3	0	0	---	0.00	30.195 
08:15	26.9	26.9	26.9	79	21.3	0	1	270	0.00	30.192 
08:20	26.9	26.9	26.9	79	21.3	0	0	---	0.00	30.192 
08:25	26.9	26.9	26.9	79	21.3	0	1	270	0.00	30.192 
08:30	26.9	26.9	26.9	79	21.3	0	1	270	0.00	30.191 
08:35	26.9	26.9	26.9	79	21.3	0	0	---	0.00	30.191 
08:40	27.0	27.0	27.0	79	21.4	0	0	---	0.00	30.191 
08:45	27.0	27.0	27.0	79	21.4	0	0	---	0.00	30.192 
08:50	27.2	27.2	27.2	79	21.6	0	1	270	0.00	30.192 
08:55	27.5	27.5	27.5	79	21.9	0	1	270	0.00	30.192 
09:00	27.6	27.6	27.6	78	21.7	0	1	270	0.00	30.191 
09:05	27.9	27.9	27.9	78	21.9	0	2	270	0.00	30.191 
09:10	28.2	28.2	28.2	78	22.2	0	1	270	0.00	30.191 
09:15	28.5	28.5	28.5	78	22.5	0	0	---	0.00	30.196 
09:20	28.8	28.8	28.8	77	22.5	0	1	270	0.00	30.196 
09:25	29.0	29.0	29.0	77	22.7	0	1	270	0.00	30.196 
09:30	29.3	29.3	29.3	76	22.7	0	1	270	0.00	30.205 
09:35	29.5	29.5	29.5	75	22.6	0	2	270	0.00	30.205 
09:40	29.8	29.8	29.8	74	22.5	0	1	270	0.00	30.205 
09:45	30.1	30.1	30.1	74	22.8	0	1	270	0.00	30.206 
09:50	30.4	30.4	30.4	73	22.8	0	1	270	0.00	30.206 
09:55	30.7	30.7	30.7	72	22.8	0	2	270	0.00	30.206 
10:00	31.2	31.2	31.2	72	23.2	0	1	270	0.00	30.208 
10:05	31.8	31.8	31.8	70	23.2	0	2	270	0.00	30.208 
10:10	32.2	32.2	32.2	68	22.8	1	3	270	0.00	30.208 
10:15	32.9	32.9	32.9	67	23.2	0	1	270	0.00	30.211 
10:20	33.4	33.4	33.4	66	23.3	0	1	270	0.00	30.211 
10:25	33.8	33.8	33.8	64	22.9	0	1	270	0.00	30.211 
10:30	34.0	34.0	34.0	62	22.4	0	1	270	0.00	30.206 
10:35	34.3	34.3	34.3	62	22.7	0	1	270	0.00	30.206 
10:40	34.7	34.7	34.7	60	22.3	0	1	270	0.00	30.206 
10:45	35.2	35.2	35.2	60	22.7	0	1	270	0.00	30.210 
10:50	35.8	35.8	35.8	58	22.5	0	2	270	0.00	30.210 
10:55	36.3	36.3	36.3	54	21.3	1	3	270	0.00	30.210 
11:00	36.9	36.9	36.9	54	21.8	0	3	270	0.00	30.197 
11:05	37.5	37.5	37.5	52	21.5	0	2	270	0.00	30.197 
11:10	37.8	37.8	37.8	51	21.3	0	2	270	0.00	30.197 
11:15	38.0	38.0	38.0	49	20.6	0	3	270	0.00	30.192 
11:20	38.2	38.2	38.2	49	20.7	0	3	270	0.00	30.192 
11:25	38.3	38.3	38.3	48	20.4	0	1	270	0.00	30.192 
11:30	38.6	38.6	38.6	48	20.6	0	2	270	0.00	30.184 
11:35	38.8	38.8	38.8	47	20.3	0	2	270	0.00	30.184 
11:40	39.1	39.1	39.1	46	20.1	0	2	270	0.00	30.184 
11:45	39.2	39.2	39.2	45	19.7	0	1	270	0.00	30.171 
11:50	39.3	39.3	39.3	46	20.3	0	1	270	0.00	30.171 
11:55	39.5	39.5	39.5	45	19.9	0	3	270	0.00	30.171 
12:00	39.6	39.6	39.6	46	20.5	1	4	270	0.00	30.154 
12:05	39.8	39.8	39.8	45	20.2	0	2	270	0.00	30.154 
12:10	40.1	40.1	40.1	44	20.0	1	3	270	0.00	30.154 
12:15	40.2	40.2	40.2	44	20.0	0	4	270	0.00	30.149 
12:20	40.3	40.3	40.3	42	19.1	1	3	270	0.00	30.149 
12:25	40.6	40.6	40.6	43	19.9	0	1	270	0.00	30.149 
12:30	40.9	40.9	40.9	44	20.7	0	1	270	0.00	30.146 
12:35	41.2	41.2	41.2	43	20.4	1	3	270	0.00	30.146 
12:40	41.3	41.3	41.3	40	18.8	1	3	270	0.00	30.146 
12:45	41.5	41.5	41.5	41	19.6	0	2	270	0.00	30.136 
12:50	41.6	41.6	41.6	41	19.7	1	4	270	0.00	30.136 
12:55	41.8	41.8	41.8	41	19.8	1	4	270	0.00	30.136 
13:00	41.9	41.9	41.9	41	19.9	0	1	112	0.00	30.130 
13:05	42.1	42.1	42.1	42	20.7	0	1	112	0.00	30.130 
13:10	42.2	42.2	42.2	42	20.8	1	3	112	0.00	30.130 
13:15	42.2	42.2	42.2	39	19.0	1	3	112	0.00	30.116 
13:20	42.3	42.3	42.3	39	19.1	2	5	90	0.00	30.116 
13:25	42.6	42.6	42.6	40	20.0	1	4	68	0.00	30.116 
13:30	42.9	42.9	42.9	41	20.8	1	4	135	0.00	30.113 
13:35	43.1	43.1	43.1	40	20.4	1	3	112	0.00	30.113 
13:40	43.3	43.3	43.3	40	20.6	1	5	112	0.00	30.113 
13:45	43.5	43.5	43.5	41	21.4	1	3	68	0.00	30.098 
13:50	43.8	43.8	43.8	39	20.5	1	4	112	0.00	30.098 
13:55	43.9	43.9	43.9	40	21.2	1	3	112	0.00	30.098 
14:00	43.9	43.9	43.9	39	20.6	1	3	68	0.00	30.094 
14:05	43.9	43.9	43.9	38	20.0	1	5	90	0.00	30.094 
14:10	43.9	43.9	43.9	39	20.6	0	2	112	0.00	30.094 
14:15	44.1	44.1	44.1	38	20.1	1	3	112	0.00	30.088 
14:20	44.2	44.2	44.2	39	20.8	1	5	112	0.00	30.088 
14:25	44.2	44.2	44.2	40	21.4	1	5	135	0.00	30.088 
14:30	44.3	44.3	44.3	39	20.9	1	5	112	0.00	30.084 
14:35	44.3	44.3	44.3	40	21.5	1	4	112	0.00	30.084 
14:40	44.5	44.5	44.5	39	21.1	1	2	68	0.00	30.084 
14:45	44.5	44.5	44.5	39	21.1	1	4	90	0.00	30.079 
14:50	44.5	44.5	44.5	38	20.5	1	6	90	0.00	30.079 
14:55	44.5	44.5	44.5	38	20.5	1	4	135	0.00	30.079 
15:00	44.8	44.8	44.8	37	20.1	0	2	135	0.00	30.079 
15:05	44.9	44.9	44.9	37	20.2	1	4	90	0.00	30.079 
15:10	45.1	45.1	45.1	36	19.8	1	3	68	0.00	30.079 
15:15	45.2	45.2	45.2	36	19.8	1	3	68	0.00	30.082 
15:20	45.4	45.4	45.4	35	19.4	1	4	112	0.00	30.082 
15:25	45.4	45.4	45.4	34	18.7	1	5	90	0.00	30.082 
15:30	45.2	45.2	45.2	34	18.5	2	4	90	0.00	30.085 
15:35	45.2	45.2	45.2	35	19.2	1	3	112	0.00	30.085 
15:40	45.2	45.2	45.2	35	19.2	1	3	135	0.00	30.085 
15:45	45.2	45.2	45.2	35	19.2	1	5	135	0.00	30.085 
15:50	45.1	45.1	45.1	35	19.1	1	4	112	0.00	30.085 
15:55	45.1	45.1	45.1	35	19.1	1	5	90	0.00	30.085 
16:00	44.9	44.9	44.9	35	18.9	2	5	112	0.00	30.084 
16:05	44.9	44.9	44.9	35	18.9	1	3	135	0.00	30.084 
16:10	44.8	44.8	44.8	35	18.8	1	4	112	0.00	30.084 
16:15	44.8	44.8	44.8	36	19.5	0	2	112	0.00	30.083 
16:20	44.8	44.8	44.8	36	19.5	1	3	112	0.00	30.083 
16:25	44.8	44.8	44.8	37	20.1	1	3	112	0.00	30.083 
16:30	44.6	44.6	44.6	37	20.0	0	2	112	0.00	30.088 
16:35	44.6	44.6	44.6	37	20.0	1	4	112	0.00	30.088 
16:40	44.5	44.5	44.5	37	19.9	1	3	112	0.00	30.088 
16:45	44.3	44.3	44.3	37	19.7	0	2	135	0.00	30.089 
16:50	44.2	44.2	44.2	38	20.2	1	3	135	0.00	30.089 
16:55	44.1	44.1	44.1	39	20.7	0	2	135	0.00	30.089 
17:00	43.8	43.8	43.8	39	20.5	0	1	135	0.00	30.084 
17:05	43.5	43.5	43.5	40	20.8	0	0	---	0.00	30.084 
17:10	43.1	43.1	43.1	41	21.0	0	1	135	0.00	30.084 
17:15	42.6	42.6	42.6	42	21.1	0	0	---	0.00	30.083 
17:20	42.2	42.2	42.2	43	21.3	0	0	---	0.00	30.083 
17:25	41.6	41.6	41.6	44	21.3	0	0	---	0.00	30.083 
17:30	41.1	41.1	41.1	45	21.4	0	0	---	0.00	30.080 
17:35	40.6	40.6	40.6	46	21.5	0	0	---	0.00	30.080 
17:40	40.1	40.1	40.1	46	21.0	0	0	---	0.00	30.080 
17:45	39.8	39.8	39.8	47	21.2	0	0	---	0.00	30.084 
17:50	39.5	39.5	39.5	47	21.0	0	0	---	0.00	30.084 
17:55	39.1	39.1	39.1	48	21.1	0	0	---	0.00	30.084 
18:00	38.6	38.6	38.6	49	21.1	0	0	---	0.00	30.083 
18:05	38.2	38.2	38.2	49	20.7	0	0	---	0.00	30.083 
18:10	37.8	37.8	37.8	50	20.8	0	0	---	0.00	30.083 
18:15	37.5	37.5	37.5	51	21.0	0	0	---	0.00	30.086 
18:20	37.0	37.0	37.0	53	21.5	0	0	---	0.00	30.086 
18:25	36.5	36.5	36.5	53	21.0	0	0	---	0.00	30.086 
18:30	36.2	36.2	36.2	54	21.2	0	0	---	0.00	30.090 
18:35	35.8	35.8	35.8	55	21.2	0	0	---	0.00	30.090 
18:40	35.3	35.3	35.3	56	21.2	0	0	---	0.00	30.090 
18:45	34.9	34.9	34.9	57	21.2	0	0	---	0.00	30.090 
18:50	34.6	34.6	34.6	58	21.4	0	0	---	0.00	30.090 
18:55	34.1	34.1	34.1	58	20.9	0	0	---	0.00	30.090 
19:00	33.8	33.8	33.8	60	21.4	0	0	---	0.00	30.091 
19:05	33.5	33.5	33.5	61	21.5	0	0	---	0.00	30.091 
19:10	33.2	33.2	33.2	60	20.8	0	0	---	0.00	30.091 
19:15	33.1	33.1	33.1	61	21.1	0	0	---	0.00	30.090 
19:20	32.9	32.9	32.9	62	21.3	0	0	---	0.00	30.090 
19:25	32.7	32.7	32.7	62	21.1	0	0	---	0.00	30.090 
19:30	32.5	32.5	32.5	63	21.3	0	0	---	0.00	30.089 
19:35	32.4	32.4	32.4	64	21.6	0	0	---	0.00	30.089 
19:40	32.1	32.1	32.1	64	21.3	0	0	---	0.00	30.089 
19:45	31.9	31.9	31.9	65	21.5	0	0	---	0.00	30.085 
19:50	31.8	31.8	31.8	65	21.4	0	0	---	0.00	30.085 
19:55	31.6	31.6	31.6	66	21.6	0	0	---	0.00	30.085 
20:00	31.5	31.5	31.5	66	21.5	0	0	---	0.00	30.087 
20:05	31.3	31.3	31.3	66	21.3	0	0	---	0.00	30.087 
20:10	31.0	31.0	31.0	67	21.3	0	0	---	0.00	30.087 
20:15	31.0	31.0	31.0	68	21.7	0	0	---	0.00	30.084 
20:20	31.0	31.0	31.0	68	21.7	0	0	---	0.00	30.084 
20:25	31.0	31.0	31.0	68	21.7	0	0	---	0.00	30.084 
20:30	30.9	30.9	30.9	68	21.6	0	0	---	0.00	30.080 
20:35	30.7	30.7	30.7	68	21.4	0	0	---	0.00	30.080 
20:40	30.6	30.6	30.6	69	21.7	0	0	---	0.00	30.080 
20:45	30.6	30.6	30.6	69	21.7	0	0	---	0.00	30.080 
20:50	30.6	30.6	30.6	69	21.7	0	0	---	0.00	30.080 
20:55	30.6	30.6	30.6	69	21.7	0	0	---	0.00	30.080 
21:00	30.7	30.7	30.7	69	21.8	0	0	---	0.00	30.076 
21:05	30.9	30.9	30.9	68	21.6	0	0	---	0.00	30.076 
21:10	31.0	31.0	31.0	68	21.7	0	0	---	0.00	30.076 
21:15	31.2	31.2	31.2	67	21.5	0	0	---	0.00	30.070 
21:20	31.6	31.6	31.6	67	21.9	0	0	---	0.00	30.070 
21:25	31.9	31.9	31.9	66	21.9	0	0	---	0.00	30.070 
21:30	32.4	32.4	32.4	65	22.0	0	0	---	0.00	30.070 
21:35	32.5	32.5	32.5	65	22.1	0	0	---	0.00	30.070 
21:40	32.7	32.7	32.7	66	22.6	0	0	---	0.00	30.070 
21:45	32.8	32.8	32.8	66	22.7	0	0	---	0.00	30.065 
21:50	32.9	32.9	32.9	65	22.4	0	0	---	0.00	30.065 
21:55	33.1	33.1	33.1	65	22.6	0	0	---	0.00	30.065 
22:00	33.1	33.1	33.1	65	22.6	0	0	---	0.00	30.057 
22:05	33.1	33.1	33.1	66	23.0	0	0	---	0.00	30.057 
22:10	33.1	33.1	33.1	66	23.0	0	0	---	0.00	30.057 
22:15	33.1	33.1	33.1	67	23.4	0	0	---	0.00	30.052 
22:20	33.1	33.1	33.1	67	23.4	0	0	---	0.00	30.052 
22:25	33.1	33.1	33.1	67	23.4	0	0	---	0.00	30.052 
22:30	33.1	33.1	33.1	67	23.4	0	0	---	0.00	30.049 
22:35	33.2	33.2	33.2	66	23.1	0	0	---	0.00	30.049 
22:40	33.5	33.5	33.5	65	23.0	0	1	135	0.00	30.049 
22:45	33.7	33.7	33.7	65	23.2	0	0	---	0.00	30.045 
22:50	33.8	33.8	33.8	64	22.9	0	0	---	0.00	30.045 
22:55	33.8	33.8	33.8	64	22.9	0	0	---	0.00	30.045 
23:00	33.7	33.7	33.7	64	22.8	0	0	---	0.00	30.041 
23:05	33.7	33.7	33.7	64	22.8	0	0	---	0.00	30.041 
23:10	33.5	33.5	33.5	65	23.0	0	0	---	0.00	30.041 
23:15	33.4	33.4	33.4	65	22.9	0	0	---	0.00	30.040 
23:20	33.2	33.2	33.2	65	22.7	0	0	---	0.00	30.040 
23:25	33.1	33.1	33.1	65	22.6	0	0	---	0.00	30.040 
23:30	33.1	33.1	33.1	65	22.6	0	0	---	0.00	30.035 
23:35	33.2	33.2	33.2	65	22.7	0	1	135	0.00	30.035 
23:40	33.4	33.4	33.4	65	22.9	0	0	---	0.00	30.035 
23:45	33.4	33.4	33.4	65	22.9	0	0	---	0.00	30.037 
23:50	33.5	33.5	33.5	65	23.0	0	0	---	0.00	30.037 
23:55	33.4	33.4	33.4	65	22.9	0	0	---	0.00	30.037 

CoCoRaHS
IN-AL-39
A2 Web Hosting
Creative Commons License
GoDaddy
search engine by freefind advanced

loaded 2018-11-17 11:54:21 • last modified 2010-11-18 10:43:29
Privacy PolicyDisclaimer
• wx.awcolley.com is powered by PmWiki v.2002016 •
• all content (unless otherwise noted) © 2018 A W Colley